createdAt,value
2023-03-26T00:01:40.273Z,97197.84
2023-03-26T00:04:09.054Z,97208.34
2023-03-26T00:06:39.798Z,97193.63
2023-03-26T00:09:10.003Z,97193.72
2023-03-26T00:11:38.824Z,97201.84
2023-03-26T00:14:06.502Z,97194.84
2023-03-26T00:16:34.712Z,97205.78
2023-03-26T00:19:03.960Z,97198.91
2023-03-26T00:21:32.166Z,97197.34
2023-03-26T00:24:04.436Z,97199.31
2023-03-26T00:26:32.556Z,97202.03
2023-03-26T00:29:01.603Z,97206.00
2023-03-26T00:31:29.083Z,97201.59
2023-03-26T00:33:57.708Z,97200.19
2023-03-26T00:36:26.715Z,97198.63
2023-03-26T00:38:54.648Z,97196.44
2023-03-26T00:41:26.383Z,97202.50
2023-03-26T00:43:56.367Z,97194.78
2023-03-26T00:46:24.608Z,97196.81
2023-03-26T00:48:53.648Z,97188.50
2023-03-26T00:51:22.271Z,97186.34
2023-03-26T00:53:51.250Z,97198.03
2023-03-26T00:56:19.683Z,97191.84
2023-03-26T00:58:49.892Z,97189.63
2023-03-26T01:01:21.291Z,97188.75
2023-03-26T01:04:04.724Z,97195.31
2023-03-26T01:06:42.082Z,97196.19
2023-03-26T01:09:15.869Z,97185.88
2023-03-26T01:11:44.065Z,97191.47
2023-03-26T01:14:16.973Z,97193.28
2023-03-26T01:16:49.777Z,97194.66
2023-03-26T01:19:23.501Z,97191.63
2023-03-26T01:21:50.969Z,97188.88
2023-03-26T01:24:19.811Z,97190.50
2023-03-26T01:27:01.044Z,97195.63
2023-03-26T01:29:34.387Z,97192.56
2023-03-26T01:32:13.913Z,97185.88
2023-03-26T01:34:53.335Z,97191.19
2023-03-26T01:37:27.109Z,97180.38
2023-03-26T01:39:58.399Z,97179.94
2023-03-26T01:42:35.264Z,97184.09
2023-03-26T01:45:10.966Z,97172.63
2023-03-26T01:47:40.934Z,97169.59
2023-03-26T01:50:09.722Z,97163.13
2023-03-26T01:52:37.152Z,97160.25
2023-03-26T01:55:11.616Z,97164.34
2023-03-26T01:57:53.340Z,97158.91
2023-03-26T02:00:27.647Z,97155.63
2023-03-26T02:03:05.717Z,97153.78
2023-03-26T02:05:37.443Z,97152.94
2023-03-26T02:08:11.993Z,97156.44
2023-03-26T02:10:44.067Z,97152.19
2023-03-26T02:13:12.428Z,97154.78
2023-03-26T02:15:40.835Z,97141.13
2023-03-26T02:18:10.711Z,97131.50
2023-03-26T02:20:38.585Z,97135.56
2023-03-26T02:23:06.624Z,97133.25
2023-03-26T02:25:35.705Z,97124.81
2023-03-26T02:28:05.822Z,97127.72
2023-03-26T02:30:33.616Z,97121.19
2023-03-26T02:33:01.230Z,97120.91
2023-03-26T02:35:28.824Z,97116.03
2023-03-26T02:37:56.718Z,97119.78
2023-03-26T02:40:25.012Z,97119.91
2023-03-26T02:42:52.445Z,97119.91
2023-03-26T02:45:21.285Z,97111.34
2023-03-26T02:47:50.951Z,97118.22
2023-03-26T02:50:19.308Z,97112.63
2023-03-26T02:52:48.914Z,97111.75
2023-03-26T02:55:16.480Z,97104.81
2023-03-26T02:57:43.954Z,97104.81
2023-03-26T03:00:15.902Z,97105.19
2023-03-26T03:02:47.810Z,97103.47
2023-03-26T03:05:17.911Z,97104.63
2023-03-26T03:07:46.621Z,97098.72
2023-03-26T03:10:15.301Z,97095.66
2023-03-26T03:12:42.840Z,97098.03
2023-03-26T03:15:11.215Z,97094.00
2023-03-26T03:17:38.707Z,97088.91
2023-03-26T03:20:09.381Z,97088.03
2023-03-26T03:22:36.974Z,97078.50
2023-03-26T03:25:08.914Z,97078.53
2023-03-26T03:27:39.214Z,97077.94
2023-03-26T03:30:08.210Z,97077.69
2023-03-26T03:32:35.683Z,97074.59
2023-03-26T03:35:03.283Z,97075.13
2023-03-26T03:37:32.286Z,97068.00
2023-03-26T03:39:59.767Z,97069.00
2023-03-26T03:42:28.213Z,97068.81
2023-03-26T03:44:55.717Z,97078.69
2023-03-26T03:47:23.231Z,97072.53
2023-03-26T03:49:51.078Z,97065.34
2023-03-26T03:52:19.052Z,97056.50
2023-03-26T03:54:47.890Z,97059.31
2023-03-26T03:57:18.718Z,97062.34
2023-03-26T03:59:47.928Z,97062.13
2023-03-26T04:02:21.162Z,97063.38
2023-03-26T04:04:50.123Z,97064.09
2023-03-26T04:07:17.733Z,97057.94
2023-03-26T04:09:45.261Z,97061.25
2023-03-26T04:12:14.067Z,97056.91
2023-03-26T04:14:41.368Z,97053.66
2023-03-26T04:17:08.885Z,97056.78
2023-03-26T04:19:36.511Z,97056.03
2023-03-26T04:22:03.965Z,97050.47
2023-03-26T04:24:33.906Z,97052.19
2023-03-26T04:27:02.013Z,97047.63
2023-03-26T04:29:38.173Z,97045.16
2023-03-26T04:32:07.266Z,97035.97
2023-03-26T04:34:36.254Z,97036.16
2023-03-26T04:37:04.929Z,97028.91
2023-03-26T04:39:34.015Z,97023.78
2023-03-26T04:42:01.615Z,97027.94
2023-03-26T04:44:30.251Z,97029.72
2023-03-26T04:46:59.103Z,97024.88
2023-03-26T04:49:26.540Z,97016.84
2023-03-26T04:51:55.278Z,97021.28
2023-03-26T04:54:24.325Z,97011.41
2023-03-26T04:56:58.122Z,97013.94
2023-03-26T04:59:30.151Z,97008.31
2023-03-26T05:02:00.203Z,96995.25
2023-03-26T05:04:29.410Z,97003.50
2023-03-26T05:06:58.852Z,96989.72
2023-03-26T05:09:26.751Z,96988.03
2023-03-26T05:11:54.283Z,96975.81
2023-03-26T05:14:21.797Z,96973.91
2023-03-26T05:16:53.128Z,96979.03
2023-03-26T05:19:22.240Z,96967.56
2023-03-26T05:21:49.728Z,96970.28
2023-03-26T05:24:18.707Z,96959.88
2023-03-26T05:26:46.193Z,96953.31
2023-03-26T05:29:15.262Z,96954.34
2023-03-26T05:31:42.714Z,96951.03
2023-03-26T05:34:10.235Z,96952.38
2023-03-26T05:36:39.059Z,96948.31
2023-03-26T05:39:06.398Z,96946.06
2023-03-26T05:41:33.789Z,96939.66
2023-03-26T05:44:01.338Z,96933.16
2023-03-26T05:46:28.860Z,96932.41
2023-03-26T05:48:56.395Z,96937.34
2023-03-26T05:51:24.295Z,96926.50
2023-03-26T05:53:53.329Z,96932.00
2023-03-26T05:56:21.028Z,96910.13
2023-03-26T05:58:49.350Z,96911.00
2023-03-26T06:01:19.465Z,96902.00
2023-03-26T06:03:47.120Z,96898.41
2023-03-26T06:06:16.730Z,96899.47
2023-03-26T06:08:46.597Z,96888.78
2023-03-26T06:11:16.313Z,96888.38
2023-03-26T06:13:44.388Z,96882.81
2023-03-26T06:16:26.019Z,96877.06
2023-03-26T06:18:56.754Z,96874.75
2023-03-26T06:21:25.170Z,96880.47
2023-03-26T06:23:52.881Z,96877.72
2023-03-26T06:26:21.726Z,96879.38
2023-03-26T06:28:49.065Z,96873.81
2023-03-26T06:31:19.164Z,96875.88
2023-03-26T06:33:48.553Z,96878.72
2023-03-26T06:36:16.040Z,96875.81
2023-03-26T06:38:43.526Z,96872.56
2023-03-26T06:41:11.062Z,96872.09
2023-03-26T06:43:40.093Z,96870.13
2023-03-26T06:46:07.747Z,96862.41
2023-03-26T06:48:35.264Z,96861.88
2023-03-26T06:51:02.815Z,96862.13
2023-03-26T06:53:30.347Z,96854.97
2023-03-26T06:55:57.811Z,96858.06
2023-03-26T06:58:25.341Z,96852.34
2023-03-26T07:00:56.190Z,96848.03
2023-03-26T07:03:24.006Z,96859.31
2023-03-26T07:05:51.462Z,96864.22
2023-03-26T07:08:22.013Z,96861.78
2023-03-26T07:10:50.359Z,96863.22
2023-03-26T07:13:17.876Z,96865.41
2023-03-26T07:15:45.342Z,96857.28
2023-03-26T07:18:14.126Z,96857.81
2023-03-26T07:20:42.330Z,96851.88
2023-03-26T07:23:11.352Z,96848.81
2023-03-26T07:25:39.560Z,96846.56
2023-03-26T07:28:14.438Z,96843.50
2023-03-26T07:30:51.430Z,96831.53
2023-03-26T07:33:29.610Z,96830.34
2023-03-26T07:36:07.873Z,96827.72
2023-03-26T07:38:48.505Z,96817.06
2023-03-26T07:41:23.604Z,96809.66
2023-03-26T07:44:17.891Z,96810.06
2023-03-26T07:46:47.778Z,96803.28
2023-03-26T07:49:17.837Z,96803.03
2023-03-26T07:51:45.984Z,96784.81
2023-03-26T07:54:13.993Z,96787.66
2023-03-26T07:56:46.687Z,96793.41
2023-03-26T07:59:24.408Z,96781.50
2023-03-26T08:02:02.482Z,96777.00
2023-03-26T08:04:58.368Z,96777.59
2023-03-26T08:07:37.434Z,96768.16
2023-03-26T08:10:13.381Z,96769.81
2023-03-26T08:12:51.927Z,96775.97
2023-03-26T08:15:29.074Z,96778.41
2023-03-26T08:18:04.028Z,96775.19
2023-03-26T08:20:41.465Z,96772.06
2023-03-26T08:23:18.245Z,96760.19
2023-03-26T08:25:59.191Z,96767.38
2023-03-26T08:28:37.918Z,96765.53
2023-03-26T08:31:06.124Z,96757.91
2023-03-26T08:33:36.024Z,96745.19
2023-03-26T08:36:06.604Z,96743.13
2023-03-26T08:38:34.118Z,96738.41
2023-03-26T08:41:38.498Z,96735.13
2023-03-26T08:44:41.641Z,96733.66
2023-03-26T08:47:50.405Z,96727.91
2023-03-26T08:50:51.995Z,96724.41
2023-03-26T08:53:34.775Z,96725.88
2023-03-26T08:56:09.639Z,96717.66
2023-03-26T08:59:15.283Z,96708.19
2023-03-26T09:02:00.646Z,96713.56
2023-03-26T09:04:47.436Z,96711.13
2023-03-26T09:07:59.855Z,96705.16
2023-03-26T09:10:51.552Z,96698.59
2023-03-26T09:14:00.397Z,96704.34
2023-03-26T09:16:59.822Z,96707.00
2023-03-26T09:19:36.556Z,96708.44
2023-03-26T09:22:36.915Z,96695.91
2023-03-26T09:25:52.180Z,96698.97
2023-03-26T09:28:42.875Z,96688.72
2023-03-26T09:31:30.793Z,96686.47
2023-03-26T09:34:10.752Z,96687.28
2023-03-26T09:36:55.419Z,96701.66
2023-03-26T09:39:35.218Z,96703.09
2023-03-26T09:42:11.683Z,96694.88
2023-03-26T09:44:59.869Z,96692.44
2023-03-26T09:47:57.146Z,96693.44
2023-03-26T09:50:38.030Z,96688.72
2023-03-26T09:53:22.593Z,96697.78
2023-03-26T09:56:04.526Z,96698.19
2023-03-26T09:58:49.624Z,96704.53
2023-03-26T10:01:24.997Z,96702.28
2023-03-26T10:06:45.915Z,96680.91
2023-03-26T10:09:35.234Z,96681.34
2023-03-26T10:18:26.718Z,96680.72
2023-03-26T10:21:04.524Z,96684.22
2023-03-26T10:23:56.979Z,96674.34
2023-03-26T10:27:09.113Z,96679.09
2023-03-26T10:30:00.319Z,96660.59
2023-03-26T10:32:37.834Z,96654.03
2023-03-26T10:35:22.100Z,96651.56
2023-03-26T10:38:02.122Z,96649.72
2023-03-26T10:40:33.980Z,96652.41
2023-03-26T10:43:43.441Z,96659.56
2023-03-26T10:46:35.801Z,96646.25
2023-03-26T10:49:25.683Z,96645.63
2023-03-26T10:51:57.963Z,96642.34
2023-03-26T10:54:36.583Z,96641.31
2023-03-26T10:57:11.238Z,96641.53
2023-03-26T10:59:38.769Z,96635.94
2023-03-26T11:02:29.267Z,96643.97
2023-03-26T11:05:09.597Z,96638.63
2023-03-26T11:07:43.371Z,96642.34
2023-03-26T11:10:17.368Z,96633.31
2023-03-26T11:12:49.832Z,96622.41
2023-03-26T11:15:25.374Z,96621.78
2023-03-26T11:18:04.258Z,96610.94
2023-03-26T11:20:39.629Z,96608.66
2023-03-26T11:23:25.944Z,96599.19
2023-03-26T11:26:06.555Z,96594.28
2023-03-26T11:29:03.194Z,96578.03
2023-03-26T11:31:52.468Z,96590.34
2023-03-26T11:34:24.292Z,96587.88
2023-03-26T11:36:55.727Z,96578.03
2023-03-26T11:39:27.436Z,96580.06
2023-03-26T11:42:02.510Z,96582.09
2023-03-26T11:44:35.468Z,96575.31
2023-03-26T11:47:09.974Z,96579.88
2023-03-26T11:49:38.463Z,96573.47
2023-03-26T11:52:07.523Z,96575.97
2023-03-26T11:54:36.878Z,96584.38
2023-03-26T11:57:08.411Z,96590.72
2023-03-26T11:59:53.288Z,96585.53
2023-03-26T12:02:28.993Z,96582.88
2023-03-26T12:05:13.909Z,96582.25
2023-03-26T12:07:47.941Z,96583.72
2023-03-26T12:10:26.070Z,96579.84
2023-03-26T12:12:56.836Z,96584.53
2023-03-26T12:15:26.030Z,96556.53
2023-03-26T12:17:56.342Z,96567.06
2023-03-26T12:20:38.481Z,96557.34
2023-03-26T12:23:08.109Z,96544.16
2023-03-26T12:25:39.127Z,96540.66
2023-03-26T12:28:18.729Z,96530.97
2023-03-26T12:30:54.944Z,96522.75
2023-03-26T12:33:26.804Z,96516.41
2023-03-26T12:35:57.786Z,96500.63
2023-03-26T12:38:32.887Z,96497.88
2023-03-26T12:44:43.455Z,96496.25
2023-03-26T12:44:49.934Z,96480.41
2023-03-26T12:47:58.041Z,96495.69
2023-03-26T12:49:34.761Z,96469.41
2023-03-26T12:52:15.882Z,96467.31
2023-03-26T12:54:52.190Z,96467.63
2023-03-26T12:57:22.783Z,96458.16
2023-03-26T13:00:20.042Z,96457.53
2023-03-26T13:03:05.665Z,96451.78
2023-03-26T13:06:16.623Z,96449.31
2023-03-26T13:09:03.390Z,96442.94
2023-03-26T13:11:38.702Z,96448.59
2023-03-26T13:14:22.798Z,96450.09
2023-03-26T13:16:56.889Z,96447.34
2023-03-26T13:19:32.678Z,96437.44
2023-03-26T13:22:16.875Z,96440.53
2023-03-26T13:24:52.870Z,96427.03
2023-03-26T13:27:32.865Z,96435.06
2023-03-26T13:30:10.689Z,96415.34
2023-03-26T13:32:49.290Z,96413.22
2023-03-26T13:35:28.032Z,96411.47
2023-03-26T13:38:03.149Z,96418.34
2023-03-26T13:40:42.362Z,96414.28
2023-03-26T13:43:26.747Z,96401.78
2023-03-26T13:46:04.906Z,96404.97
2023-03-26T13:48:39.214Z,96405.16
2023-03-26T13:51:13.282Z,96415.72
2023-03-26T13:53:45.759Z,96435.06
2023-03-26T13:56:17.710Z,96430.59
2023-03-26T13:58:51.518Z,96429.25
2023-03-26T14:01:23.631Z,96428.91
2023-03-26T14:03:56.986Z,96432.38
2023-03-26T14:06:46.649Z,96439.94
2023-03-26T14:09:21.598Z,96440.91
2023-03-26T14:12:01.256Z,96431.84
2023-03-26T14:14:35.817Z,96394.00
2023-03-26T14:17:07.366Z,96390.41
2023-03-26T14:19:55.139Z,96390.56
2023-03-26T14:22:36.520Z,96390.19
2023-03-26T14:25:26.245Z,96377.63
2023-03-26T14:28:10.396Z,96372.75
2023-03-26T14:31:10.018Z,96365.84
2023-03-26T14:33:57.624Z,96360.66
2023-03-26T14:36:48.287Z,96354.63
2023-03-26T14:39:31.744Z,96360.34
2023-03-26T14:42:03.854Z,96349.38
2023-03-26T14:45:02.333Z,96356.72
2023-03-26T14:47:31.439Z,96340.41
2023-03-26T14:50:46.425Z,96341.72
2023-03-26T14:53:26.964Z,96351.81
2023-03-26T14:56:29.152Z,96336.78
2023-03-26T14:59:43.908Z,96335.66
2023-03-26T15:02:53.567Z,96325.72
2023-03-26T15:05:57.968Z,96317.56
2023-03-26T15:08:53.236Z,96312.41
2023-03-26T15:11:27.919Z,96310.53
2023-03-26T15:14:13.567Z,96317.31
2023-03-26T15:17:20.130Z,96301.22
2023-03-26T15:20:50.291Z,96290.38
2023-03-26T15:23:55.183Z,96310.31
2023-03-26T15:26:56.714Z,96307.50
2023-03-26T15:30:05.672Z,96305.63
2023-03-26T15:33:10.298Z,96303.53
2023-03-26T15:36:04.858Z,96307.44
2023-03-26T15:38:55.585Z,96316.94
2023-03-26T15:41:29.365Z,96308.66
2023-03-26T15:44:26.448Z,96312.50
2023-03-26T15:47:01.647Z,96305.03
2023-03-26T15:49:41.821Z,96305.38
2023-03-26T15:52:23.810Z,96318.47
2023-03-26T15:55:01.807Z,96318.25
2023-03-26T15:57:34.316Z,96320.00
2023-03-26T16:00:22.273Z,96324.69
2023-03-26T16:03:09.949Z,96315.94
2023-03-26T16:05:53.686Z,96325.50
2023-03-26T16:08:29.279Z,96322.56
2023-03-26T16:11:02.571Z,96323.97
2023-03-26T16:13:39.457Z,96321.66
2023-03-26T16:16:25.717Z,96331.41
2023-03-26T16:19:27.072Z,96345.84
2023-03-26T16:21:58.201Z,96323.16
2023-03-26T16:24:30.513Z,96330.91
2023-03-26T16:27:08.072Z,96331.59
2023-03-26T16:30:19.442Z,96324.28
2023-03-26T16:32:55.940Z,96335.41
2023-03-26T16:35:49.301Z,96350.25
2023-03-26T16:38:18.418Z,96351.13
2023-03-26T16:41:00.689Z,96343.66
2023-03-26T16:43:45.325Z,96355.56
2023-03-26T16:46:24.831Z,96355.31
2023-03-26T16:48:58.653Z,96359.50
2023-03-26T16:51:34.948Z,96334.34
2023-03-26T16:54:14.057Z,96339.81
2023-03-26T16:56:49.347Z,96336.53
2023-03-26T17:00:06.755Z,96338.84
2023-03-26T17:02:47.937Z,96343.84
2023-03-26T17:05:20.930Z,96346.47
2023-03-26T17:07:56.990Z,96342.06
2023-03-26T17:10:35.032Z,96343.81
2023-03-26T17:13:08.007Z,96356.72
2023-03-26T17:15:46.930Z,96364.63
2023-03-26T17:18:29.378Z,96364.56
2023-03-26T17:21:03.399Z,96374.75
2023-03-26T17:23:48.739Z,96378.81
2023-03-26T17:26:23.581Z,96378.72
2023-03-26T17:29:02.749Z,96384.69
2023-03-26T17:31:43.721Z,96390.63
2023-03-26T17:34:34.937Z,96394.16
2023-03-26T17:37:05.247Z,96398.47
2023-03-26T17:40:12.248Z,96403.84
2023-03-26T17:42:39.844Z,96410.31
2023-03-26T17:45:17.426Z,96419.00
2023-03-26T17:47:50.983Z,96417.38
2023-03-26T17:50:22.483Z,96427.19
2023-03-26T17:52:57.923Z,96435.38
2023-03-26T17:55:30.765Z,96438.41
2023-03-26T17:58:00.038Z,96439.66
2023-03-26T18:00:30.567Z,96437.44
2023-03-26T18:03:03.610Z,96450.16
2023-03-26T18:05:37.413Z,96454.59
2023-03-26T18:08:40.730Z,96450.34
2023-03-26T18:11:38.978Z,96459.00
2023-03-26T18:14:42.261Z,96465.19
2023-03-26T18:17:10.438Z,96466.88
2023-03-26T18:19:49.716Z,96457.06
2023-03-26T18:22:20.959Z,96455.41
2023-03-26T18:24:49.058Z,96457.31
2023-03-26T18:27:19.013Z,96461.06
2023-03-26T18:30:02.005Z,96469.56
2023-03-26T18:32:33.199Z,96461.44
2023-03-26T18:35:14.202Z,96460.41
2023-03-26T18:37:45.810Z,96460.81
2023-03-26T18:40:19.072Z,96462.78
2023-03-26T18:42:49.499Z,96458.97
2023-03-26T18:45:25.918Z,96457.94
2023-03-26T18:47:55.502Z,96453.88
2023-03-26T18:50:27.967Z,96445.66
2023-03-26T18:52:59.005Z,96444.34
2023-03-26T18:55:29.105Z,96441.47
2023-03-26T18:57:57.252Z,96450.66
2023-03-26T19:00:27.644Z,96454.13
2023-03-26T19:03:04.398Z,96449.59
2023-03-26T19:05:35.648Z,96448.56
2023-03-26T19:08:06.261Z,96447.06
2023-03-26T19:10:34.526Z,96454.34
2023-03-26T19:13:03.129Z,96449.16
2023-03-26T19:15:32.773Z,96446.59
2023-03-26T19:18:06.990Z,96448.22
2023-03-26T19:20:41.620Z,96453.16
2023-03-26T19:23:14.177Z,96452.00
2023-03-26T19:25:44.645Z,96460.53
2023-03-26T19:28:18.301Z,96453.53
2023-03-26T19:30:45.874Z,96449.59
2023-03-26T19:33:18.158Z,96451.22
2023-03-26T19:35:52.221Z,96451.16
2023-03-26T19:38:23.542Z,96445.34
2023-03-26T19:40:52.992Z,96451.34
2023-03-26T19:43:21.172Z,96450.78
2023-03-26T19:45:59.989Z,96445.56
2023-03-26T19:48:45.459Z,96446.41
2023-03-26T19:51:21.827Z,96436.09
2023-03-26T19:53:50.899Z,96447.41
2023-03-26T19:56:20.691Z,96445.69
2023-03-26T19:58:49.872Z,96452.28
2023-03-26T20:01:19.160Z,96449.78
2023-03-26T20:03:48.736Z,96448.13
2023-03-26T20:06:30.836Z,96446.09
2023-03-26T20:09:02.034Z,96445.78
2023-03-26T20:11:34.132Z,96447.25
2023-03-26T20:14:02.354Z,96441.69
2023-03-26T20:16:31.777Z,96446.72
2023-03-26T20:19:02.372Z,96447.16
2023-03-26T20:21:34.472Z,96444.69
2023-03-26T20:24:03.000Z,96445.94
2023-03-26T20:26:30.479Z,96439.88
2023-03-26T20:28:58.154Z,96446.34
2023-03-26T20:31:28.023Z,96441.84
2023-03-26T20:33:56.515Z,96447.38
2023-03-26T20:36:33.111Z,96450.59
2023-03-26T20:39:06.476Z,96459.72
2023-03-26T20:41:37.848Z,96449.25
2023-03-26T20:44:13.367Z,96453.56
2023-03-26T20:46:41.327Z,96451.63
2023-03-26T20:49:10.092Z,96451.31
2023-03-26T20:51:38.503Z,96449.69
2023-03-26T20:54:07.722Z,96444.56
2023-03-26T20:56:37.432Z,96449.91
2023-03-26T20:59:11.075Z,96455.25
2023-03-26T21:01:39.524Z,96447.84
2023-03-26T21:04:07.293Z,96462.00
2023-03-26T21:06:34.991Z,96459.28
2023-03-26T21:09:03.959Z,96470.84
2023-03-26T21:11:45.923Z,96470.34
2023-03-26T21:14:19.584Z,96465.56
2023-03-26T21:16:47.603Z,96471.41
2023-03-26T21:19:15.720Z,96472.25
2023-03-26T21:22:02.930Z,96459.59
2023-03-26T21:24:35.968Z,96466.84
2023-03-26T21:27:13.593Z,96467.66
2023-03-26T21:29:41.698Z,96466.63
2023-03-26T21:32:12.091Z,96464.38
2023-03-26T21:34:47.660Z,96461.88
2023-03-26T21:37:20.160Z,96466.41
2023-03-26T21:39:48.049Z,96468.06
2023-03-26T21:42:17.801Z,96463.72
2023-03-26T21:44:46.015Z,96458.81
2023-03-26T21:47:14.224Z,96463.91
2023-03-26T21:49:42.222Z,96463.44
2023-03-26T21:52:14.840Z,96469.13
2023-03-26T21:54:43.542Z,96461.78
2023-03-26T21:57:24.367Z,96460.84
2023-03-26T22:00:01.589Z,96467.38
2023-03-26T22:02:39.421Z,96458.81
2023-03-26T22:05:15.250Z,96471.75
2023-03-26T22:07:52.309Z,96473.84
2023-03-26T22:10:20.047Z,96474.50
2023-03-26T22:12:49.008Z,96462.25
2023-03-26T22:15:19.144Z,96473.47
2023-03-26T22:17:53.530Z,96466.69
2023-03-26T22:20:24.565Z,96465.19
2023-03-26T22:22:53.444Z,96470.66
2023-03-26T22:25:22.578Z,96463.56
2023-03-26T22:27:52.553Z,96458.84
2023-03-26T22:30:20.802Z,96474.09
2023-03-26T22:32:48.655Z,96473.63
2023-03-26T22:35:16.981Z,96477.06
2023-03-26T22:37:44.974Z,96476.31
2023-03-26T22:40:13.854Z,96483.13
2023-03-26T22:42:41.501Z,96484.41
2023-03-26T22:45:11.751Z,96483.16
2023-03-26T22:47:39.961Z,96483.09
2023-03-26T22:50:09.720Z,96491.75
2023-03-26T22:52:37.553Z,96492.38
2023-03-26T22:55:05.583Z,96493.63
2023-03-26T22:57:33.356Z,96493.41
2023-03-26T23:00:12.250Z,96490.94
2023-03-26T23:02:41.644Z,96491.38
2023-03-26T23:05:10.626Z,96490.56
2023-03-26T23:07:40.677Z,96489.09
2023-03-26T23:10:09.395Z,96486.00
2023-03-26T23:12:36.850Z,96487.47
2023-03-26T23:15:05.174Z,96486.41
2023-03-26T23:17:35.205Z,96495.88
2023-03-26T23:20:11.967Z,96488.06
2023-03-26T23:22:40.011Z,96489.44
2023-03-26T23:25:09.810Z,96492.56
2023-03-26T23:27:37.589Z,96493.34
2023-03-26T23:30:06.036Z,96495.44
2023-03-26T23:32:37.510Z,96504.06
2023-03-26T23:35:07.360Z,96506.34
2023-03-26T23:37:35.391Z,96504.06
2023-03-26T23:40:07.315Z,96498.13
2023-03-26T23:42:35.355Z,96503.88
2023-03-26T23:45:03.036Z,96508.56
2023-03-26T23:47:34.244Z,96510.81
2023-03-26T23:50:03.309Z,96507.34
2023-03-26T23:52:32.348Z,96509.84
2023-03-26T23:55:00.645Z,96497.31
2023-03-26T23:57:28.186Z,96506.94
2023-03-26T23:59:56.091Z,96506.72
